Time;durP1;ratioP1;P1;durP2;ratioP2;P2;SDS_P1;SDS_P2;PMS_P1;PMS_P2;Temp;Humidity;BMP_temperature;BMP_pressure;BME280_temperature;BME280_humidity;BME280_pressure;Samples;Min_cycle;Max_cycle;Signal;HPM_P1;HPM_P2
2023/08/02 00:01:02;;;;;;;4.00;3.30;;;;;;;14.79;100.00;98386.38;5051738;28;20029;-84
2023/08/02 00:03:27;;;;;;;4.35;3.88;;;;;;;14.66;100.00;98379.56;5033709;28;20033;-84
2023/08/02 00:05:57;;;;;;;4.43;3.72;;;;;;;14.67;100.00;98380.38;5052203;28;20367;-84
2023/08/02 00:08:24;;;;;;;3.67;3.38;;;;;;;14.42;100.00;98344.88;5051462;28;20025;-84
2023/08/02 00:10:50;;;;;;;6.00;4.05;;;;;;;14.63;100.00;98385.06;5051588;28;20029;-83
2023/08/02 00:13:15;;;;;;;5.65;4.25;;;;;;;14.63;100.00;98378.97;5052722;28;20055;-83
2023/08/02 00:15:41;;;;;;;7.00;4.60;;;;;;;14.69;100.00;98388.94;5055614;28;20495;-84
2023/08/02 00:18:07;;;;;;;4.60;4.20;;;;;;;14.42;100.00;98350.94;5037659;28;20095;-83
2023/08/02 00:20:33;;;;;;;9.07;4.43;;;;;;;14.70;100.00;98395.84;5055157;28;20052;-83
2023/08/02 00:22:58;;;;;;;6.15;4.10;;;;;;;14.61;100.00;98380.88;5055643;28;20033;-84
2023/08/02 00:25:24;;;;;;;7.13;5.13;;;;;;;14.65;100.00;98393.59;5037098;28;20080;-84
2023/08/02 00:27:49;;;;;;;5.63;4.03;;;;;;;14.42;100.00;98361.44;5055192;28;20029;-84
2023/08/02 00:30:15;;;;;;;7.32;4.32;;;;;;;14.53;100.00;98378.91;5055013;28;20544;-84
2023/08/02 00:32:47;;;;;;;7.10;4.45;;;;;;;14.61;100.00;98401.84;5037308;28;20025;-83
2023/08/02 00:35:12;;;;;;;4.65;4.05;;;;;;;14.65;100.00;98400.63;5037264;28;20025;-83
2023/08/02 00:37:38;;;;;;;7.00;4.75;;;;;;;14.49;100.00;98374.88;5054768;28;20132;-84
2023/08/02 00:40:04;;;;;;;6.55;4.75;;;;;;;14.37;100.00;98368.03;5055030;28;20036;-84
2023/08/02 00:42:29;;;;;;;6.60;4.65;;;;;;;14.56;100.00;98397.00;5054845;28;20391;-84
2023/08/02 00:44:54;;;;;;;4.90;4.40;;;;;;;14.52;100.00;98400.00;5055003;28;20495;-83
2023/08/02 00:47:20;;;;;;;8.70;4.53;;;;;;;14.52;100.00;98398.19;5055048;28;20060;-84
2023/08/02 00:49:45;;;;;;;4.88;4.38;;;;;;;14.51;100.00;98396.53;5054804;28;20044;-84
2023/08/02 00:52:11;;;;;;;5.22;4.72;;;;;;;14.56;100.00;98404.84;5036880;28;20052;-83
2023/08/02 00:54:37;;;;;;;6.80;4.10;;;;;;;14.20;100.00;98348.44;5054543;28;20035;-83
2023/08/02 00:57:03;;;;;;;5.43;3.97;;;;;;;14.50;100.00;98400.13;5055134;28;20033;-84
2023/08/02 00:59:29;;;;;;;5.50;4.20;;;;;;;14.25;100.00;98359.38;5054674;28;20029;-84
2023/08/02 01:01:54;;;;;;;6.90;4.50;;;;;;;14.21;100.00;98366.66;5054684;28;20032;-84
2023/08/02 01:04:20;;;;;;;5.13;3.72;;;;;;;14.42;100.00;98403.34;5055091;28;20021;-83
2023/08/02 01:06:51;;;;;;;5.22;3.95;;;;;;;14.33;100.00;98391.00;5055817;28;20392;-83
2023/08/02 01:09:30;;;;;;;5.13;4.20;;;;;;;14.43;100.00;98415.47;5055699;28;20025;-83
2023/08/02 01:12:06;;;;;;;7.13;4.40;;;;;;;14.19;100.00;98380.81;5054716;28;20039;-83
2023/08/02 01:14:36;;;;;;;4.78;4.38;;;;;;;14.17;100.00;98386.19;5054203;28;20412;-84
2023/08/02 01:17:02;;;;;;;5.10;4.60;;;;;;;14.16;100.00;98397.63;5054312;28;20491;-83
2023/08/02 01:19:28;;;;;;;5.32;4.50;;;;;;;14.10;100.00;98392.88;5054232;28;20060;-83
2023/08/02 01:21:53;;;;;;;6.25;4.28;;;;;;;13.98;100.00;98367.69;5054389;28;20025;-83
2023/08/02 01:24:19;;;;;;;4.30;3.90;;;;;;;14.16;100.00;98407.28;5054356;28;20094;-84
2023/08/02 01:26:47;;;;;;;5.35;4.22;;;;;;;14.12;100.00;98411.09;5036291;28;20021;-83
2023/08/02 01:29:16;;;;;;;5.20;4.03;;;;;;;14.02;100.00;98403.13;5054262;28;20053;-83
2023/08/02 01:31:42;;;;;;;5.35;4.57;;;;;;;14.04;100.00;98405.63;5054086;28;20021;-84
2023/08/02 01:34:08;;;;;;;4.95;4.10;;;;;;;14.03;100.00;98420.53;5054156;28;20029;-83
2023/08/02 01:36:34;;;;;;;4.65;4.10;;;;;;;14.03;100.00;98415.28;5036249;28;20107;-83
2023/08/02 01:38:59;;;;;;;5.80;4.28;;;;;;;14.08;100.00;98431.44;5036322;28;20119;-83
2023/08/02 01:41:24;;;;;;;4.57;4.05;;;;;;;14.03;100.00;98431.00;5035723;28;20468;-84
2023/08/02 01:43:50;;;;;;;6.78;3.95;;;;;;;14.05;100.00;98431.69;5053776;28;20036;-83
2023/08/02 01:46:15;;;;;;;6.57;4.80;;;;;;;13.81;100.00;98392.59;5053863;28;20025;-84
2023/08/02 01:48:41;;;;;;;4.75;4.18;;;;;;;14.00;100.00;98430.41;5053333;28;20239;-83
2023/08/02 01:51:06;;;;;;;4.65;4.13;;;;;;;13.93;100.00;98435.28;5053762;28;20078;-83
2023/08/02 01:53:31;;;;;;;5.45;3.97;;;;;;;13.81;100.00;98425.78;5035657;28;20032;-83
2023/08/02 01:55:57;;;;;;;5.55;4.47;;;;;;;13.73;100.00;98415.91;5053672;28;20078;-84
2023/08/02 01:58:22;;;;;;;7.30;4.03;;;;;;;13.84;100.00;98436.00;5053336;28;20416;-83
2023/08/02 02:00:47;;;;;;;8.02;5.03;;;;;;;13.80;100.00;98421.50;5035491;28;20028;-84
2023/08/02 02:03:13;;;;;;;4.78;4.07;;;;;;;13.70;100.00;98409.16;5053304;28;20032;-83
2023/08/02 02:05:38;;;;;;;5.00;4.10;;;;;;;13.70;100.00;98401.31;5053462;28;20079;-84
2023/08/02 02:08:03;;;;;;;6.43;4.65;;;;;;;13.87;100.00;98435.78;5053332;28;20067;-84
2023/08/02 02:10:29;;;;;;;6.70;4.30;;;;;;;13.89;100.00;98447.78;5035306;28;20064;-83
2023/08/02 02:12:55;;;;;;;4.88;4.20;;;;;;;13.87;100.00;98446.25;5053310;28;20522;-84
2023/08/02 02:15:20;;;;;;;6.53;4.10;;;;;;;13.82;100.00;98446.63;5053350;28;20032;-83
2023/08/02 02:17:45;;;;;;;4.90;4.40;;;;;;;13.76;100.00;98436.63;5035033;28;20116;-84
2023/08/02 02:20:12;;;;;;;4.68;4.05;;;;;;;13.80;100.00;98448.50;5035351;28;20025;-84
2023/08/02 02:22:38;;;;;;;5.15;4.18;;;;;;;13.63;100.00;98410.59;5052833;28;20025;-84
2023/08/02 02:25:03;;;;;;;7.70;5.15;;;;;;;13.81;100.00;98446.72;5035155;28;20107;-83
2023/08/02 02:27:28;;;;;;;5.22;4.72;;;;;;;13.81;100.00;98451.94;5052564;28;20043;-83
2023/08/02 02:29:54;;;;;;;4.85;4.45;;;;;;;13.52;100.00;98401.91;5035017;28;20025;-83
2023/08/02 02:32:19;;;;;;;4.95;4.18;;;;;;;13.66;100.00;98427.84;5052764;28;20032;-83
2023/08/02 02:34:44;;;;;;;6.97;4.78;;;;;;;13.76;100.00;98467.19;5034878;28;20021;-84
2023/08/02 02:37:10;;;;;;;4.55;3.90;;;;;;;13.65;100.00;98449.69;5052341;28;20083;-83
2023/08/02 02:39:36;;;;;;;4.97;4.50;;;;;;;13.62;100.00;98442.13;5052820;28;20431;-85
2023/08/02 02:42:02;;;;;;;5.55;4.60;;;;;;;13.53;100.00;98437.59;5052621;28;20035;-84
2023/08/02 02:44:43;;;;;;;4.30;3.70;;;;;;;13.57;100.00;98445.09;5034593;28;20375;-83
2023/08/02 02:47:10;;;;;;;;;;;;;;;13.54;100.00;98470.66;5035157;28;20056;-84
2023/08/02 02:49:35;;;;;;;6.13;4.68;;;;;;;13.28;100.00;98428.22;5052531;28;19908;-84
2023/08/02 02:52:00;;;;;;;4.45;4.05;;;;;;;13.44;100.00;98454.81;5052557;28;20075;-83
2023/08/02 02:54:26;;;;;;;5.88;4.55;;;;;;;13.28;100.00;98428.22;5052455;28;20103;-83
2023/08/02 02:56:51;;;;;;;6.50;4.75;;;;;;;13.30;100.00;98434.97;5034852;28;20072;-83
2023/08/02 02:59:17;;;;;;;5.35;4.60;;;;;;;13.21;100.00;98423.41;5052900;28;20033;-84
2023/08/02 03:01:42;;;;;;;7.28;4.38;;;;;;;13.11;100.00;98411.19;5052706;28;20060;-83
2023/08/02 03:04:07;;;;;;;6.00;4.82;;;;;;;13.11;100.00;98403.34;5053194;28;20048;-84
2023/08/02 03:06:33;;;;;;;7.88;5.03;;;;;;;13.38;100.00;98450.06;5053414;28;20052;-83
2023/08/02 03:08:58;;;;;;;5.93;4.43;;;;;;;13.23;100.00;98433.78;5053684;28;20029;-83
2023/08/02 03:11:23;;;;;;;5.40;4.90;;;;;;;13.20;100.00;98426.16;5036219;28;20025;-83
2023/08/02 03:13:49;;;;;;;6.78;4.50;;;;;;;13.29;100.00;98449.00;5035811;28;20358;-83
2023/08/02 03:16:14;;;;;;;5.78;4.60;;;;;;;13.26;100.00;98448.41;5042917;28;20005;-84
2023/08/02 03:18:39;;;;;;;6.45;4.50;;;;;;;13.16;100.00;98443.84;5071948;28;20034;-84
2023/08/02 03:21:04;;;;;;;5.63;4.97;;;;;;;13.16;100.00;98443.84;5071688;28;20029;-83
2023/08/02 03:23:30;;;;;;;6.97;4.53;;;;;;;13.19;100.00;98438.41;5071178;28;20031;-84
2023/08/02 03:25:56;;;;;;;7.72;4.30;;;;;;;13.42;100.00;98472.44;5068869;28;20032;-84
2023/08/02 03:28:21;;;;;;;5.15;4.07;;;;;;;13.37;100.00;98456.25;5066953;28;20529;-84
2023/08/02 03:30:46;;;;;;;5.38;4.85;;;;;;;13.49;100.00;98468.41;5054121;28;20124;-83
2023/08/02 03:33:12;;;;;;;5.75;5.03;;;;;;;13.39;100.00;98442.09;5034589;28;20021;-84
2023/08/02 03:35:37;;;;;;;7.28;5.53;;;;;;;13.54;100.00;98462.81;5051964;28;20020;-84
2023/08/02 03:38:02;;;;;;;5.28;4.78;;;;;;;13.60;100.00;98464.94;5052048;28;20063;-83
2023/08/02 03:40:28;;;;;;;7.13;4.75;;;;;;;13.57;100.00;98447.72;5051757;28;20110;-84
2023/08/02 03:42:53;;;;;;;7.95;5.30;;;;;;;13.64;100.00;98461.13;5051932;28;20029;-84
2023/08/02 03:45:18;;;;;;;5.93;5.03;;;;;;;13.88;100.00;98493.22;5033877;28;20028;-84
2023/08/02 03:47:44;;;;;;;8.23;5.18;;;;;;;13.67;100.00;98453.03;5034346;28;20114;-84
2023/08/02 03:50:09;;;;;;;6.25;4.72;;;;;;;13.69;100.00;98440.66;5056089;28;20021;-84
2023/08/02 03:52:34;;;;;;;6.45;4.80;;;;;;;13.97;100.00;98483.81;5037988;28;20029;-84
2023/08/02 03:55:00;;;;;;;9.85;4.93;;;;;;;13.95;100.00;98470.03;5056083;28;20594;-84
2023/08/02 03:57:25;;;;;;;5.53;4.70;;;;;;;14.02;100.00;98472.97;5056097;28;20365;-84
2023/08/02 03:59:50;;;;;;;5.70;5.10;;;;;;;13.85;100.00;98453.38;5055479;28;20123;-83
2023/08/02 04:02:16;;;;;;;9.30;5.40;;;;;;;13.91;100.00;98456.34;5055695;28;20029;-84
2023/08/02 04:04:41;;;;;;;7.57;4.90;;;;;;;14.06;100.00;98470.00;5055841;28;20563;-83
2023/08/02 04:07:06;;;;;;;5.63;5.00;;;;;;;14.11;100.00;98478.31;5037772;28;20108;-84
2023/08/02 04:09:32;;;;;;;6.55;5.38;;;;;;;14.07;100.00;98457.72;5055431;28;20116;-83
2023/08/02 04:11:57;;;;;;;8.05;4.82;;;;;;;14.33;100.00;98476.63;5055574;28;20068;-84
2023/08/02 04:14:22;;;;;;;5.63;4.90;;;;;;;14.35;100.00;98443.25;5037701;28;20369;-84
2023/08/02 04:16:48;;;;;;;7.32;4.85;;;;;;;14.84;100.00;98462.84;5055480;28;20464;-84
2023/08/02 04:19:13;;;;;;;5.45;4.85;;;;;;;15.06;100.00;98435.66;5037617;28;20443;-84
2023/08/02 04:21:38;;;;;;;4.55;4.15;;;;;;;15.40;100.00;98454.63;5037302;28;20059;-84
2023/08/02 04:24:04;;;;;;;4.97;3.90;;;;;;;15.61;100.00;98489.50;5055426;28;20446;-84
2023/08/02 04:26:29;;;;;;;4.72;4.05;;;;;;;15.38;100.00;98470.50;5055286;28;20025;-84
2023/08/02 04:28:54;;;;;;;7.28;4.10;;;;;;;15.45;100.00;98481.28;5055207;28;20025;-84
2023/08/02 04:31:20;;;;;;;6.40;4.75;;;;;;;15.41;100.00;98478.09;5055425;28;20075;-84
2023/08/02 04:33:45;;;;;;;5.70;4.25;;;;;;;15.51;100.00;98475.53;5055137;28;20029;-84
2023/08/02 04:36:11;;;;;;;6.15;4.82;;;;;;;15.44;100.00;98456.03;5037404;28;20025;-84
2023/08/02 04:38:36;;;;;;;8.30;5.10;;;;;;;15.38;100.00;98446.03;5054984;28;20068;-83
2023/08/02 04:41:01;;;;;;;5.68;3.78;;;;;;;15.72;100.00;98480.75;5055127;28;20094;-84
2023/08/02 04:43:26;;;;;;;6.88;4.55;;;;;;;15.81;100.00;98466.00;5037073;28;20059;-84
2023/08/02 04:45:52;;;;;;;8.25;4.30;;;;;;;15.77;100.00;98460.19;5036787;28;20083;-83
2023/08/02 04:48:17;;;;;;;5.13;3.95;;;;;;;16.29;100.00;98481.88;5055082;28;20025;-84
2023/08/02 04:50:43;;;;;;;5.97;3.97;;;;;;;17.52;100.00;98468.88;5054766;28;20078;-83
2023/08/02 04:53:09;;;;;;;6.13;4.70;;;;;;;19.30;100.00;98477.94;5054858;28;20028;-83
2023/08/02 04:55:44;;;;;;;6.63;4.32;;;;;;;19.53;98.31;98481.72;5036688;28;20387;-83
2023/08/02 04:58:10;;;;;;;6.88;4.35;;;;;;;18.71;98.49;98477.69;5036722;28;20487;-85
2023/08/02 05:00:35;;;;;;;8.52;4.28;;;;;;;18.31;100.00;98486.81;5036161;28;20056;-83
2023/08/02 05:03:01;;;;;;;5.90;3.95;;;;;;;18.15;100.00;98471.66;5054763;28;20032;-83
2023/08/02 05:05:26;;;;;;;7.60;4.30;;;;;;;18.58;100.00;98485.94;5054925;28;20029;-83
2023/08/02 05:07:51;;;;;;;7.00;4.30;;;;;;;18.84;100.00;98466.75;5054664;28;20065;-84
2023/08/02 05:10:17;;;;;;;6.80;4.10;;;;;;;19.02;100.00;98454.34;5036500;28;20021;-83
2023/08/02 05:12:42;;;;;;;6.18;3.75;;;;;;;19.20;100.00;98492.06;5054248;28;20423;-83
2023/08/02 05:15:08;;;;;;;10.43;4.32;;;;;;;18.95;100.00;98463.84;5054571;28;20104;-84
2023/08/02 05:17:33;;;;;;;4.63;4.05;;;;;;;19.10;99.82;98446.50;5036443;28;20095;-83
2023/08/02 05:19:59;;;;;;;5.15;3.90;;;;;;;20.05;96.86;98500.16;5054436;28;20059;-84
2023/08/02 05:22:25;;;;;;;8.63;4.15;;;;;;;20.24;96.23;98488.50;5054130;28;20086;-84
2023/08/02 05:24:51;;;;;;;8.25;3.58;;;;;;;20.61;95.90;98495.22;5054018;28;20021;-83
2023/08/02 05:27:17;;;;;;;6.07;3.90;;;;;;;20.62;94.12;98492.41;5054035;28;20029;-83
2023/08/02 05:29:42;;;;;;;6.30;4.13;;;;;;;20.48;94.85;98465.72;5054017;28;20021;-84
2023/08/02 05:32:07;;;;;;;4.93;3.85;;;;;;;20.57;94.49;98467.44;5054164;28;20108;-83
2023/08/02 05:34:33;;;;;;;5.10;3.72;;;;;;;20.86;94.64;98496.88;5054183;28;20048;-83
2023/08/02 05:36:58;;;;;;;5.78;4.10;;;;;;;21.31;93.46;98492.88;5053790;28;20037;-83
2023/08/02 05:39:23;;;;;;;6.78;3.75;;;;;;;21.35;91.88;98494.22;5053882;28;20037;-83
2023/08/02 05:41:49;;;;;;;4.90;3.60;;;;;;;21.35;92.63;98499.50;5053544;28;20036;-83
2023/08/02 05:44:14;;;;;;;4.82;3.47;;;;;;;21.30;92.15;98507.09;5054009;28;20369;-83
2023/08/02 05:46:40;;;;;;;4.80;3.75;;;;;;;21.16;93.22;98513.91;5054102;28;20032;-83
2023/08/02 05:49:05;;;;;;;5.80;3.22;;;;;;;20.93;93.81;98505.81;5053878;28;20476;-83
2023/08/02 05:51:30;;;;;;;7.63;3.42;;;;;;;20.74;95.26;98519.38;5053963;28;20029;-83
2023/08/02 05:53:56;;;;;;;5.03;3.70;;;;;;;20.53;95.56;98511.91;5035746;28;20029;-83
2023/08/02 05:56:21;;;;;;;6.45;4.07;;;;;;;20.45;96.95;98519.78;5054048;28;20035;-83
2023/08/02 05:58:46;;;;;;;5.47;4.05;;;;;;;20.25;97.08;98506.00;5055878;28;20031;-84
2023/08/02 06:01:12;;;;;;;5.28;3.90;;;;;;;20.33;97.71;98521.06;5057189;28;20490;-83
2023/08/02 06:03:37;;;;;;;8.38;4.53;;;;;;;19.98;97.50;98479.81;5054070;28;20524;-83
2023/08/02 06:06:02;;;;;;;8.32;3.92;;;;;;;20.15;98.56;98526.47;5037410;28;20028;-83
2023/08/02 06:08:28;;;;;;;7.22;4.03;;;;;;;20.10;98.70;98523.44;5032997;28;20041;-84
2023/08/02 06:10:54;;;;;;;5.57;3.35;;;;;;;20.08;99.46;98518.34;5031930;28;20049;-83
2023/08/02 06:13:19;;;;;;;6.68;4.22;;;;;;;20.11;99.41;98511.91;5033899;28;20049;-83
2023/08/02 06:15:44;;;;;;;8.63;3.65;;;;;;;20.09;99.23;98501.47;5031681;28;20485;-83
2023/08/02 06:18:10;;;;;;;4.05;3.05;;;;;;;20.37;100.00;98509.19;5032671;28;20048;-83
2023/08/02 06:20:35;;;;;;;5.47;3.42;;;;;;;20.60;100.00;98525.28;5033089;28;20029;-83
2023/08/02 06:23:00;;;;;;;8.98;4.20;;;;;;;20.57;99.01;98484.13;5033540;28;20219;-83
2023/08/02 06:25:27;;;;;;;5.28;3.38;;;;;;;20.83;97.87;98497.22;5016071;28;20030;-84
2023/08/02 06:27:52;;;;;;;4.90;3.40;;;;;;;21.04;96.46;98520.53;5014600;28;20500;-83
2023/08/02 06:30:17;;;;;;;3.95;3.40;;;;;;;21.29;95.93;98531.13;5031172;28;20035;-83
2023/08/02 06:32:43;;;;;;;5.00;3.10;;;;;;;21.46;96.77;98516.88;5031354;28;20056;-83
2023/08/02 06:35:09;;;;;;;5.43;3.17;;;;;;;21.66;95.51;98512.88;5031335;28;20040;-82
2023/08/02 06:37:34;;;;;;;4.13;3.53;;;;;;;21.91;93.84;98518.06;5032295;28;20030;-83
2023/08/02 06:40:00;;;;;;;4.55;3.25;;;;;;;22.05;93.29;98512.06;5030200;28;20510;-81
2023/08/02 06:42:25;;;;;;;4.75;3.25;;;;;;;22.12;93.59;98514.84;5055623;28;20082;-82
2023/08/02 06:44:50;;;;;;;6.90;3.15;;;;;;;22.25;92.47;98495.75;5055940;28;20075;-82
2023/08/02 06:47:16;;;;;;;4.53;2.95;;;;;;;22.35;90.71;98489.25;5037021;28;20055;-83
2023/08/02 06:49:41;;;;;;;4.53;2.97;;;;;;;22.49;90.57;98481.53;5054735;28;20086;-82
2023/08/02 06:52:07;;;;;;;3.75;3.08;;;;;;;22.98;89.92;98503.25;5054199;28;20025;-82
2023/08/02 06:54:32;;;;;;;4.18;3.05;;;;;;;23.37;87.26;98489.78;5054250;28;20025;-83
2023/08/02 06:56:57;;;;;;;3.15;2.40;;;;;;;23.98;85.44;98467.53;5054154;28;20067;-82
2023/08/02 06:59:23;;;;;;;3.35;2.30;;;;;;;24.66;83.59;98486.75;5054326;28;20414;-82
2023/08/02 07:01:48;;;;;;;7.25;2.75;;;;;;;25.18;81.22;98481.06;5054547;28;20036;-83
2023/08/02 07:04:14;;;;;;;4.20;2.22;;;;;;;25.81;77.89;98497.91;5055109;28;20051;-82
2023/08/02 07:06:39;;;;;;;3.53;2.55;;;;;;;26.30;76.26;98477.41;5036272;28;20415;-82
2023/08/02 07:09:04;;;;;;;3.42;2.15;;;;;;;27.04;73.92;98492.53;5055770;28;20586;-83
2023/08/02 07:11:30;;;;;;;4.20;2.30;;;;;;;27.54;71.92;98463.50;5056207;28;20063;-83
2023/08/02 07:13:55;;;;;;;3.35;2.38;;;;;;;28.04;69.04;98456.56;5054155;28;20048;-83
2023/08/02 07:16:20;;;;;;;3.53;2.15;;;;;;;28.77;67.85;98472.25;5054140;28;20480;-84
2023/08/02 07:18:46;;;;;;;3.08;2.10;;;;;;;29.41;66.66;98467.59;5053082;28;20029;-84
2023/08/02 07:21:12;;;;;;;4.95;2.30;;;;;;;30.20;62.56;98468.59;5055908;28;20028;-83
2023/08/02 07:23:37;;;;;;;2.78;1.90;;;;;;;31.05;61.01;98497.97;5052266;28;20025;-84
2023/08/02 07:26:04;;;;;;;3.00;1.77;;;;;;;32.01;59.13;98500.44;5052743;28;20025;-84
2023/08/02 07:28:30;;;;;;;5.22;2.13;;;;;;;33.29;56.28;98479.34;5053023;28;20033;-84
2023/08/02 07:31:24;;;;;;;2.63;2.03;;;;;;;35.00;54.67;98488.16;5055243;28;20080;-83
2023/08/02 07:33:50;;;;;;;2.40;2.20;;;;;;;36.21;51.65;98481.81;4990825;28;20042;-83
2023/08/02 07:36:18;;;;;;;2.17;1.98;;;;;;;37.15;50.04;98463.50;4991111;28;20037;-84
2023/08/02 07:38:44;;;;;;;2.80;2.10;;;;;;;38.20;48.77;98486.31;4990721;28;20528;-84
2023/08/02 07:41:09;;;;;;;3.72;2.28;;;;;;;38.91;47.10;98479.63;4991062;28;20027;-83
2023/08/02 07:43:35;;;;;;;3.28;2.00;;;;;;;39.49;46.53;98467.94;4992110;28;20072;-83
2023/08/02 07:46:00;;;;;;;3.65;2.10;;;;;;;40.19;45.37;98476.38;4975255;28;20080;-83
2023/08/02 07:48:25;;;;;;;4.22;2.53;;;;;;;40.65;44.33;98448.44;4992456;28;20035;-84
2023/08/02 07:50:51;;;;;;;2.10;2.00;;;;;;;41.03;44.04;98451.91;4991839;28;20038;-84
2023/08/02 07:53:16;;;;;;;3.20;2.40;;;;;;;41.36;43.64;98452.69;4993097;28;20030;-84
2023/08/02 07:55:42;;;;;;;2.20;2.00;;;;;;;41.81;43.02;98469.34;4993088;28;20035;-84
2023/08/02 07:58:08;;;;;;;2.03;1.92;;;;;;;41.92;42.47;98458.19;4993031;28;20045;-85
2023/08/02 08:00:33;;;;;;;3.03;2.03;;;;;;;42.23;41.73;98461.09;4994577;28;20034;-85
2023/08/02 08:02:58;;;;;;;2.33;1.85;;;;;;;42.18;42.33;98467.44;4993751;28;20470;-83
2023/08/02 08:05:25;;;;;;;2.65;2.20;;;;;;;42.21;41.88;98460.56;4993773;28;20477;-83
2023/08/02 08:07:51;;;;;;;3.40;2.50;;;;;;;42.18;41.12;98447.47;4985289;28;20090;-84
2023/08/02 08:10:16;;;;;;;2.90;2.45;;;;;;;42.15;41.65;98468.06;5017487;28;20037;-84
2023/08/02 08:12:41;;;;;;;2.50;2.10;;;;;;;41.88;41.63;98449.78;5055513;28;20045;-84
2023/08/02 08:15:07;;;;;;;2.83;2.45;;;;;;;41.63;41.64;98446.44;5036860;28;20049;-85
2023/08/02 08:17:33;;;;;;;2.30;1.98;;;;;;;41.22;41.06;98440.13;5060019;28;20025;-85
2023/08/02 08:19:58;;;;;;;2.58;2.13;;;;;;;40.40;41.37;98442.25;5063562;28;20043;-85
2023/08/02 08:22:28;;;;;;;2.90;2.20;;;;;;;38.55;42.08;98430.88;5058373;28;20104;-83
2023/08/02 08:24:57;;;;;;;4.82;1.88;;;;;;;36.39;43.90;98420.84;5049679;28;20036;-84
2023/08/02 08:27:22;;;;;;;3.30;1.85;;;;;;;35.40;45.89;98454.34;5070171;28;20360;-83
2023/08/02 08:29:48;;;;;;;2.45;2.25;;;;;;;34.83;46.83;98419.81;5066860;28;20044;-83
2023/08/02 08:32:13;;;;;;;3.22;2.00;;;;;;;33.78;46.23;98423.59;5068172;28;20029;-83
2023/08/02 08:34:38;;;;;;;4.18;2.10;;;;;;;33.08;48.63;98451.22;5055130;28;20487;-82
2023/08/02 08:37:04;;;;;;;3.42;2.15;;;;;;;32.37;49.81;98449.97;5055824;28;20468;-84
2023/08/02 08:39:29;;;;;;;3.67;2.33;;;;;;;31.73;50.93;98436.56;5055484;28;20460;-82
2023/08/02 08:41:56;;;;;;;3.33;2.30;;;;;;;31.23;51.66;98442.47;5057442;28;20368;-85
2023/08/02 08:44:22;;;;;;;3.42;2.00;;;;;;;30.74;51.70;98436.44;5057051;28;20499;-85
2023/08/02 08:46:48;;;;;;;4.88;2.00;;;;;;;30.18;52.37;98433.13;5038185;28;20104;-83
2023/08/02 08:49:13;;;;;;;3.92;2.15;;;;;;;29.50;53.42;98403.78;5055899;28;20047;-85
2023/08/02 08:51:43;;;;;;;2.88;1.92;;;;;;;29.22;54.84;98442.63;5056637;28;20468;-85
2023/08/02 08:54:18;;;;;;;2.13;2.00;;;;;;;28.71;55.22;98432.94;5055693;28;20021;-86
2023/08/02 08:56:44;;;;;;;5.47;2.40;;;;;;;28.35;56.54;98430.88;5057751;28;20029;-86
2023/08/02 08:59:09;;;;;;;2.47;1.90;;;;;;;27.98;56.78;98408.41;5055629;28;20084;-86
2023/08/02 09:01:36;;;;;;;2.83;1.80;;;;;;;27.75;56.87;98415.13;5056058;28;20067;-86
2023/08/02 09:04:03;;;;;;;4.93;2.25;;;;;;;27.56;57.40;98426.69;5062010;28;20037;-84
2023/08/02 09:06:29;;;;;;;2.65;2.33;;;;;;;27.24;58.00;98413.19;5062346;28;20463;-84
2023/08/02 09:08:54;;;;;;;3.13;2.33;;;;;;;26.91;58.35;98396.34;5063669;28;20025;-86
2023/08/02 09:11:20;;;;;;;2.05;1.70;;;;;;;26.79;59.99;98423.66;5046148;28;20052;-83
2023/08/02 09:13:45;;;;;;;2.35;2.05;;;;;;;26.58;60.12;98422.00;5064433;28;20049;-86
2023/08/02 09:16:12;;;;;;;2.67;2.35;;;;;;;26.60;60.87;98421.81;5045746;28;20021;-85
2023/08/02 09:18:42;;;;;;;3.40;2.40;;;;;;;26.69;60.79;98422.44;5064726;28;20037;-85
2023/08/02 09:21:11;;;;;;;4.10;2.53;;;;;;;26.58;60.33;98407.84;5062963;28;20120;-85
2023/08/02 09:23:36;;;;;;;3.67;2.33;;;;;;;26.60;59.61;98416.47;5063933;28;20033;-85
2023/08/02 09:26:18;;;;;;;4.65;3.22;;;;;;;26.68;59.97;98421.63;5062933;28;20047;-84
2023/08/02 09:29:06;;;;;;;2.47;2.22;;;;;;;26.65;60.41;98431.91;5063796;28;20027;-86
2023/08/02 09:31:36;;;;;;;4.32;2.53;;;;;;;26.59;60.94;98420.19;5061723;28;20021;-84
2023/08/02 09:34:02;;;;;;;2.60;2.20;;;;;;;26.53;62.28;98423.66;5062754;28;20065;-85
2023/08/02 09:36:32;;;;;;;2.83;2.10;;;;;;;26.22;62.28;98384.97;5061572;28;20029;-84
2023/08/02 09:39:09;;;;;;;2.45;2.25;;;;;;;26.32;62.82;98384.56;5061244;28;20099;-84
2023/08/02 09:41:35;;;;;;;3.53;2.60;;;;;;;26.65;63.03;98414.00;5044168;28;20040;-86
2023/08/02 09:44:00;;;;;;;3.53;2.60;;;;;;;26.64;62.46;98385.69;5044408;28;20403;-85
2023/08/02 09:46:28;;;;;;;4.13;2.88;;;;;;;26.90;62.26;98419.56;5062820;28;20494;-85
2023/08/02 09:48:54;;;;;;;4.95;2.22;;;;;;;26.82;61.62;98417.91;5061479;28;20024;-85
2023/08/02 09:51:20;;;;;;;4.82;2.67;;;;;;;26.65;61.31;98400.66;5062318;28;20033;-85
2023/08/02 09:53:53;;;;;;;6.03;2.35;;;;;;;26.67;62.04;98411.13;5044830;28;20063;-87
2023/08/02 09:56:22;;;;;;;3.25;2.17;;;;;;;26.69;61.97;98420.59;5063262;28;20032;-85
2023/08/02 09:58:49;;;;;;;3.67;2.35;;;;;;;26.69;61.89;98419.78;5063213;28;20037;-85
2023/08/02 10:01:15;;;;;;;2.83;2.28;;;;;;;26.64;61.74;98407.03;5062354;28;20036;-85
2023/08/02 10:03:41;;;;;;;3.95;2.67;;;;;;;26.70;62.11;98378.69;5057095;28;20033;-85
2023/08/02 10:06:07;;;;;;;2.50;2.15;;;;;;;26.69;60.32;98385.06;5053598;28;20061;-85
2023/08/02 10:08:34;;;;;;;4.55;2.60;;;;;;;26.58;60.80;98397.97;5053431;28;20044;-85
2023/08/02 10:11:00;;;;;;;3.20;2.40;;;;;;;26.74;61.18;98411.97;5030664;28;20449;-85
2023/08/02 10:13:29;;;;;;;2.72;2.20;;;;;;;26.61;60.87;98384.22;5030931;28;20061;-86
2023/08/02 10:15:55;;;;;;;3.85;2.00;;;;;;;26.57;61.21;98364.28;5032197;28;20061;-86
2023/08/02 10:18:22;;;;;;;2.40;1.95;;;;;;;26.90;61.78;98392.03;5032800;28;20029;-85
2023/08/02 10:20:48;;;;;;;3.63;2.20;;;;;;;26.93;61.96;98379.09;5032171;28;20177;-85
2023/08/02 10:23:13;;;;;;;3.78;2.17;;;;;;;26.89;61.06;98369.84;5031535;28;20036;-83
2023/08/02 10:25:41;;;;;;;2.35;2.00;;;;;;;26.69;61.90;98353.81;5034679;28;20091;-83
2023/08/02 10:28:07;;;;;;;3.60;2.28;;;;;;;26.59;61.96;98348.91;5051059;28;20133;-83
2023/08/02 10:30:32;;;;;;;4.57;2.15;;;;;;;26.71;63.22;98358.94;5050995;28;20116;-83
2023/08/02 10:33:14;;;;;;;2.88;2.30;;;;;;;26.81;61.31;98372.72;5051402;28;20444;-83
2023/08/02 10:36:07;;;;;;;3.25;2.53;;;;;;;26.75;61.43;98379.69;5050993;28;20029;-82
2023/08/02 10:38:47;;;;;;;2.55;2.15;;;;;;;26.77;61.31;98380.31;4972278;28;20051;-83
2023/08/02 10:41:18;;;;;;;3.95;2.00;;;;;;;26.70;61.40;98341.28;4975368;28;20382;-83
2023/08/02 10:43:53;;;;;;;2.85;2.05;;;;;;;27.09;61.77;98368.00;4991870;28;20046;-83
2023/08/02 10:46:32;;;;;;;3.70;2.25;;;;;;;27.22;61.11;98377.00;4991932;28;20031;-83
2023/08/02 10:49:09;;;;;;;3.08;1.80;;;;;;;27.29;60.26;98361.75;4993498;28;20042;-83
2023/08/02 10:51:37;;;;;;;3.17;1.90;;;;;;;27.15;58.64;98334.25;4993047;28;20030;-83
2023/08/02 10:54:12;;;;;;;2.33;1.90;;;;;;;27.32;57.44;98369.38;4992364;28;20073;-83
2023/08/02 10:56:53;;;;;;;3.17;1.90;;;;;;;27.22;58.27;98363.63;4992157;28;20058;-82
2023/08/02 10:59:36;;;;;;;1.90;1.80;;;;;;;27.13;58.40;98354.19;4992839;28;20545;-82
2023/08/02 11:02:10;;;;;;;2.45;1.60;;;;;;;26.96;58.52;98343.09;4971498;28;20533;-82
2023/08/02 11:04:39;;;;;;;4.35;1.92;;;;;;;27.04;59.04;98346.38;4971814;28;20027;-82
2023/08/02 11:07:16;;;;;;;2.97;2.00;;;;;;;26.90;57.95;98342.09;4972119;28;20033;-82
2023/08/02 11:09:42;;;;;;;2.95;2.10;;;;;;;26.99;59.04;98340.00;4972322;28;20186;-82
2023/08/02 11:12:10;;;;;;;3.25;1.95;;;;;;;27.07;57.76;98337.94;4972485;28;20038;-82
2023/08/02 11:14:36;;;;;;;2.15;1.55;;;;;;;26.96;58.17;98333.22;4986872;28;20132;-82
2023/08/02 11:17:02;;;;;;;2.10;1.90;;;;;;;26.57;57.98;98280.69;5051599;28;20108;-82
2023/08/02 11:19:29;;;;;;;2.75;1.70;;;;;;;26.68;57.78;98330.81;5052097;28;20155;-83
2023/08/02 11:21:55;;;;;;;2.63;1.85;;;;;;;26.55;58.93;98317.47;5052202;28;20048;-82
2023/08/02 11:24:21;;;;;;;5.30;1.95;;;;;;;26.42;58.96;98299.59;5052088;28;20646;-83
2023/08/02 11:26:54;;;;;;;2.67;1.70;;;;;;;26.55;58.95;98315.63;5052142;28;20104;-83